Time;durP1;ratioP1;P1;durP2;ratioP2;P2;SDS_P1;SDS_P2;PMS_P1;PMS_P2;Temp;Humidity;BMP_temperature;BMP_pressure;BME280_temperature;BME280_humidity;BME280_pressure;Samples;Min_cycle;Max_cycle;Signal;HPM_P1;HPM_P2
2023/09/04 00:00:50;;;;;;;0.93;0.90;;;13.30;99.90;13.30;101817.00;;;;5024796;27;96522;-63
2023/09/04 00:03:16;;;;;;;1.17;0.97;;;13.30;99.90;13.20;101821.00;;;;5023629;27;88923;-64
2023/09/04 00:05:41;;;;;;;2.50;0.97;;;13.20;99.90;13.10;101809.00;;;;5025067;27;107850;-64
2023/09/04 00:08:07;;;;;;;1.53;0.90;;;13.20;99.90;13.10;101801.00;;;;5029318;27;118644;-64
2023/09/04 00:10:42;;;;;;;2.10;1.07;;;13.10;99.90;13.10;101812.00;;;;5027514;27;104985;-63
2023/09/04 00:13:08;;;;;;;1.63;1.27;;;13.10;99.90;13.00;101818.00;;;;5029444;27;87821;-65
2023/09/04 00:15:34;;;;;;;0.70;0.60;;;13.10;99.90;13.00;101826.00;;;;5030741;27;108740;-64
2023/09/04 00:17:59;;;;;;;1.67;0.70;;;13.00;99.90;12.90;101829.00;;;;5027834;27;87957;-64
2023/09/04 00:20:25;;;;;;;1.50;0.90;;;13.00;99.90;12.90;101827.00;;;;5025351;27;113995;-65
2023/09/04 00:22:51;;;;;;;0.77;0.77;;;13.00;99.90;12.80;101828.00;;;;5026717;27;110636;-64
2023/09/04 00:25:16;;;;;;;2.40;1.40;;;12.90;99.90;12.80;101820.00;;;;5024121;27;110274;-64
2023/09/04 00:27:42;;;;;;;1.40;1.07;;;12.90;99.90;12.80;101826.00;;;;5023647;27;107851;-64
2023/09/04 00:30:08;;;;;;;0.70;0.70;;;12.80;99.90;12.80;101815.00;;;;5024974;27;96493;-63
2023/09/04 00:32:34;;;;;;;0.83;0.80;;;12.80;99.90;12.70;101824.00;;;;5024800;27;103307;-65
2023/09/04 00:35:00;;;;;;;3.07;1.03;;;12.80;99.90;12.70;101829.00;;;;5023175;27;107642;-64
2023/09/04 00:37:25;;;;;;;1.57;0.90;;;12.70;99.90;12.70;101831.00;;;;5026597;27;116565;-64
2023/09/04 00:39:51;;;;;;;1.87;1.00;;;12.70;99.90;12.70;101829.00;;;;5027032;27;116928;-64
2023/09/04 00:42:17;;;;;;;9.07;1.20;;;12.70;99.90;12.60;101844.00;;;;5028047;27;93949;-64
2023/09/04 00:44:44;;;;;;;1.23;0.90;;;12.70;99.90;12.60;101844.00;;;;5025578;27;87320;-65
2023/09/04 00:47:14;;;;;;;0.97;0.60;;;12.70;99.90;12.60;101839.00;;;;5027667;27;88544;-65
2023/09/04 00:49:42;;;;;;;2.00;1.07;;;12.60;99.90;12.60;101833.00;;;;5027712;27;88630;-64
2023/09/04 00:52:08;;;;;;;0.90;0.80;;;12.60;99.90;12.50;101834.00;;;;5028253;27;88649;-64
2023/09/04 00:54:35;;;;;;;0.70;0.70;;;12.60;99.90;12.50;101835.00;;;;5010330;27;109125;-64
2023/09/04 00:57:03;;;;;;;0.90;0.70;;;12.50;99.90;12.40;101845.00;;;;5030009;27;115194;-65
2023/09/04 00:59:32;;;;;;;1.27;1.00;;;12.50;99.90;12.40;101844.00;;;;5029624;27;88408;-65
2023/09/04 01:01:59;;;;;;;1.07;1.03;;;12.50;99.90;12.40;101852.00;;;;5023809;27;110653;-64
2023/09/04 01:04:26;;;;;;;1.57;1.40;;;12.40;99.90;12.40;101865.00;;;;5008122;27;88486;-64
2023/09/04 01:06:53;;;;;;;1.53;1.10;;;12.40;99.90;12.30;101852.00;;;;5024616;27;115502;-64
2023/09/04 01:09:20;;;;;;;1.40;1.00;;;12.40;99.90;12.30;101844.00;;;;5028414;27;88611;-64
2023/09/04 01:11:56;;;;;;;4.23;1.43;;;12.30;99.90;12.20;101848.00;;;;5027133;27;87991;-64
2023/09/04 01:14:24;;;;;;;1.00;0.90;;;12.30;99.90;12.20;101831.00;;;;5009391;27;88893;-64
2023/09/04 01:16:52;;;;;;;0.70;0.70;;;12.30;99.90;12.20;101834.00;;;;5025785;27;98563;-63
2023/09/04 01:19:18;;;;;;;1.53;0.93;;;12.20;99.90;12.20;101831.00;;;;5024715;27;118729;-63
2023/09/04 01:21:43;;;;;;;1.80;0.80;;;12.40;99.90;12.10;101823.00;;;;5028279;27;87929;-64
2023/09/04 01:24:09;;;;;;;1.90;1.43;;;12.20;99.90;12.10;101819.00;;;;5023185;27;108280;-65
2023/09/04 01:26:42;;;;;;;1.50;0.97;;;12.20;99.90;12.10;101825.00;;;;5023703;27;118063;-64
2023/09/04 01:29:29;;;;;;;1.97;1.07;;;12.10;99.90;12.00;101815.00;;;;4995042;27;110558;-64
2023/09/04 01:32:26;;;;;;;1.37;0.70;;;12.10;99.90;11.90;101816.00;;;;5008912;27;94026;-63
2023/09/04 01:34:53;;;;;;;1.40;1.30;;;12.00;99.90;11.90;101809.00;;;;5005174;27;101280;-63
2023/09/04 01:37:21;;;;;;;1.70;1.37;;;12.00;99.90;11.90;101807.00;;;;5014361;27;119266;-63
2023/09/04 01:39:48;;;;;;;0.73;0.73;;;11.90;99.90;11.90;101810.00;;;;5014340;27;88470;-64
2023/09/04 01:42:14;;;;;;;1.00;0.90;;;11.90;99.90;11.80;101809.00;;;;5020612;27;104652;-63
2023/09/04 01:44:41;;;;;;;1.83;0.90;;;11.90;99.90;11.80;101804.00;;;;5022726;27;109316;-65
2023/09/04 01:47:07;;;;;;;1.50;1.20;;;11.90;99.90;11.80;101820.00;;;;5026804;27;88789;-66
2023/09/04 01:49:33;;;;;;;1.50;1.10;;;11.80;99.90;11.70;101818.00;;;;5027589;27;87910;-64
2023/09/04 01:52:00;;;;;;;1.03;0.87;;;11.80;99.90;11.70;101817.00;;;;5023806;27;94456;-64
2023/09/04 01:54:26;;;;;;;1.10;1.00;;;11.80;99.90;11.70;101823.00;;;;5023991;27;87883;-64
2023/09/04 01:56:52;;;;;;;1.77;0.97;;;11.80;99.90;11.70;101823.00;;;;5025809;27;107664;-64
2023/09/04 01:59:18;;;;;;;1.80;1.00;;;11.70;99.90;11.70;101826.00;;;;5027503;27;101855;-63
2023/09/04 02:01:43;;;;;;;1.77;1.20;;;11.70;99.90;11.60;101827.00;;;;5027528;27;110604;-64
2023/09/04 02:04:09;;;;;;;0.80;0.80;;;11.70;99.90;11.50;101823.00;;;;5023493;27;106733;-64
2023/09/04 02:06:35;;;;;;;0.80;0.80;;;11.60;99.90;11.50;101825.00;;;;5022619;27;90020;-64
2023/09/04 02:09:00;;;;;;;0.60;0.60;;;11.60;99.90;11.50;101838.00;;;;5020664;27;118697;-65
2023/09/04 02:11:26;;;;;;;1.33;1.20;;;11.50;99.90;11.40;101837.00;;;;5021255;27;110651;-64
2023/09/04 02:13:52;;;;;;;0.73;0.73;;;11.50;99.90;11.40;101834.00;;;;5027089;27;106571;-64
2023/09/04 02:16:18;;;;;;;1.17;1.07;;;11.60;99.90;11.40;101830.00;;;;5022658;27;116274;-64
2023/09/04 02:18:43;;;;;;;1.03;0.90;;;11.50;99.90;11.40;101840.00;;;;5024149;27;117004;-65
2023/09/04 02:21:09;;;;;;;0.90;0.87;;;11.40;99.90;11.40;101843.00;;;;5026164;27;110003;-64
2023/09/04 02:23:35;;;;;;;1.67;0.97;;;11.40;99.90;11.30;101845.00;;;;5022307;27;108517;-65
2023/09/04 02:26:02;;;;;;;1.40;1.07;;;11.40;99.90;11.30;101852.00;;;;5022347;27;116978;-64
2023/09/04 02:28:29;;;;;;;1.07;0.87;;;11.40;99.90;11.30;101843.00;;;;5022533;27;88816;-64
2023/09/04 02:30:55;;;;;;;1.67;0.73;;;11.30;99.90;11.30;101843.00;;;;5022823;27;88984;-65
2023/09/04 02:33:20;;;;;;;1.30;1.07;;;11.40;99.90;11.30;101838.00;;;;5023367;27;100912;-65
2023/09/04 02:35:46;;;;;;;2.77;1.27;;;11.30;99.90;11.20;101834.00;;;;5027454;27;88754;-65
2023/09/04 02:38:12;;;;;;;2.40;1.27;;;11.30;99.90;11.20;101834.00;;;;5021671;27;88638;-64
2023/09/04 02:40:37;;;;;;;2.97;1.57;;;11.30;99.90;11.20;101841.00;;;;5024820;27;104801;-64
2023/09/04 02:43:03;;;;;;;1.03;0.93;;;11.20;99.90;11.20;101839.00;;;;5019245;27;109431;-64
2023/09/04 02:45:29;;;;;;;1.37;0.90;;;11.20;99.90;11.10;101839.00;;;;5024131;27;87984;-64
2023/09/04 02:47:55;;;;;;;2.97;1.53;;;11.20;99.90;11.10;101833.00;;;;5024841;27;114024;-64
2023/09/04 02:50:20;;;;;;;1.40;1.30;;;11.20;99.90;11.10;101836.00;;;;5024528;27;87884;-64
2023/09/04 02:52:46;;;;;;;2.77;1.77;;;11.20;99.90;11.10;101834.00;;;;5020364;27;106918;-64
2023/09/04 02:55:12;;;;;;;2.13;1.47;;;11.20;99.90;11.10;101833.00;;;;5021983;27;118475;-64
2023/09/04 02:57:38;;;;;;;2.10;1.40;;;11.20;99.90;11.10;101833.00;;;;5027231;27;100534;-63
2023/09/04 03:00:06;;;;;;;2.60;1.00;;;11.20;99.90;11.10;101836.00;;;;4994708;27;109933;-63
2023/09/04 03:02:34;;;;;;;1.77;1.30;;;11.20;99.90;11.10;101842.00;;;;5026131;27;87905;-64
2023/09/04 03:04:59;;;;;;;2.50;1.60;;;11.10;99.90;11.10;101837.00;;;;5026323;27;88064;-65
2023/09/04 03:07:26;;;;;;;2.67;1.17;;;11.10;99.90;11.10;101835.00;;;;5021423;27;88354;-63
2023/09/04 03:09:57;;;;;;;1.73;1.13;;;11.10;99.90;11.10;101835.00;;;;5014664;27;87975;-65
2023/09/04 03:12:24;;;;;;;1.40;0.87;;;11.10;99.90;11.10;101839.00;;;;5019786;27;87091;-63
2023/09/04 03:15:02;;;;;;;5.13;1.23;;;11.10;99.90;11.00;101833.00;;;;5022813;27;109802;-64
2023/09/04 03:17:29;;;;;;;1.20;0.83;;;11.10;99.90;11.00;101826.00;;;;5024070;27;88065;-65
2023/09/04 03:19:57;;;;;;;1.63;1.53;;;11.10;99.90;11.00;101828.00;;;;5022463;27;88883;-65
2023/09/04 03:22:24;;;;;;;2.17;1.77;;;11.50;99.90;11.00;101819.00;;;;5022043;27;100868;-65
2023/09/04 03:24:50;;;;;;;1.57;1.07;;;11.00;99.90;11.00;101814.00;;;;5024245;27;88900;-66
2023/09/04 03:27:19;;;;;;;1.43;1.33;;;11.10;99.90;11.00;101813.00;;;;5022606;27;100537;-65
2023/09/04 03:29:47;;;;;;;0.80;0.80;;;11.00;99.90;10.90;101825.00;;;;5023780;27;100060;-64
2023/09/04 03:32:13;;;;;;;1.53;1.43;;;11.00;99.90;10.90;101831.00;;;;5023761;27;108022;-64
2023/09/04 03:34:39;;;;;;;1.40;1.17;;;11.00;99.90;10.90;101831.00;;;;5022202;27;116290;-65
2023/09/04 03:37:05;;;;;;;3.63;1.97;;;11.00;99.90;10.90;101831.00;;;;5028823;27;89085;-64
2023/09/04 03:39:37;;;;;;;1.67;1.10;;;10.90;99.90;10.80;101846.00;;;;5025578;27;87961;-65
2023/09/04 03:42:05;;;;;;;3.37;1.23;;;10.90;99.90;10.80;101849.00;;;;5028735;27;95987;-64
2023/09/04 03:44:30;;;;;;;2.00;1.43;;;10.90;99.90;10.80;101839.00;;;;5026601;27;89968;-65
2023/09/04 03:46:56;;;;;;;1.43;0.97;;;10.80;99.90;10.80;101845.00;;;;5026983;27;119691;-65
2023/09/04 03:49:22;;;;;;;3.33;1.67;;;10.80;99.90;10.70;101852.00;;;;5022733;27;109105;-66
2023/09/04 03:51:47;;;;;;;1.80;1.50;;;10.80;99.90;10.70;101850.00;;;;5029645;27;107868;-64
2023/09/04 03:54:13;;;;;;;1.23;1.13;;;10.80;99.90;10.70;101846.00;;;;5024818;27;118355;-65
2023/09/04 03:56:38;;;;;;;2.17;1.03;;;10.70;99.90;10.60;101845.00;;;;5028600;27;118037;-65
2023/09/04 03:59:04;;;;;;;1.37;1.27;;;10.70;99.90;10.60;101844.00;;;;5024457;27;111833;-64
2023/09/04 04:01:31;;;;;;;2.00;1.10;;;10.70;99.90;10.60;101850.00;;;;5029878;27;108684;-64
2023/09/04 04:03:57;;;;;;;2.67;0.93;;;10.60;99.90;10.50;101865.00;;;;5029028;27;88352;-64
2023/09/04 04:06:25;;;;;;;3.03;1.03;;;10.60;99.90;10.50;101869.00;;;;5026730;27;90176;-65
2023/09/04 04:08:51;;;;;;;1.77;0.97;;;10.60;99.90;10.50;101875.00;;;;5022912;27;88678;-66
2023/09/04 04:11:19;;;;;;;2.20;1.10;;;10.60;99.90;10.50;101865.00;;;;5028531;27;89311;-65
2023/09/04 04:13:45;;;;;;;1.30;0.97;;;10.60;99.90;10.50;101856.00;;;;5024427;27;88053;-64
2023/09/04 04:16:10;;;;;;;1.40;1.13;;;10.60;99.90;10.50;101871.00;;;;5027108;27;88420;-65
2023/09/04 04:18:36;;;;;;;1.90;1.33;;;10.50;99.90;10.50;101874.00;;;;5023979;27;88037;-64
2023/09/04 04:21:02;;;;;;;1.43;1.27;;;10.50;99.90;10.40;101871.00;;;;5024685;27;108201;-65
2023/09/04 04:23:28;;;;;;;1.70;1.00;;;10.50;99.90;10.40;101877.00;;;;5023477;27;88166;-64
2023/09/04 04:25:54;;;;;;;1.63;1.00;;;10.50;99.90;10.40;101872.00;;;;5034290;27;87842;-64
2023/09/04 04:28:21;;;;;;;0.87;0.83;;;10.50;99.90;10.40;101871.00;;;;5025224;27;87911;-65
2023/09/04 04:30:46;;;;;;;2.50;1.30;;;10.50;99.90;10.40;101877.00;;;;5030839;27;87552;-64
2023/09/04 04:33:12;;;;;;;0.63;0.63;;;10.40;99.90;10.30;101882.00;;;;5024619;27;89647;-64
2023/09/04 04:35:39;;;;;;;0.93;0.93;;;10.40;99.90;10.30;101879.00;;;;5027582;27;107174;-64
2023/09/04 04:38:06;;;;;;;0.93;0.90;;;10.40;99.90;10.30;101888.00;;;;5022529;27;101529;-64
2023/09/04 04:40:32;;;;;;;1.57;1.10;;;10.40;99.90;10.30;101899.00;;;;5024008;27;88272;-65
2023/09/04 04:42:58;;;;;;;2.07;1.40;;;10.40;99.90;10.30;101902.00;;;;5027721;27;112661;-64
2023/09/04 04:45:24;;;;;;;1.00;1.00;;;10.40;99.90;10.30;101902.00;;;;5029614;27;88272;-65
2023/09/04 04:47:49;;;;;;;1.90;1.40;;;10.40;99.90;10.40;101897.00;;;;5025904;27;87840;-64
2023/09/04 04:50:15;;;;;;;1.70;1.00;;;10.40;99.90;10.40;101899.00;;;;5026745;27;88006;-64
2023/09/04 04:52:41;;;;;;;1.03;0.93;;;10.40;99.90;10.40;101896.00;;;;5033956;27;88769;-65
2023/09/04 04:55:07;;;;;;;1.43;1.00;;;10.50;99.90;10.40;101895.00;;;;5030197;27;94026;-63
2023/09/04 04:57:33;;;;;;;2.07;1.03;;;10.50;99.90;10.50;101886.00;;;;5026076;27;88826;-64
2023/09/04 04:59:59;;;;;;;1.40;0.90;;;10.50;99.90;10.50;101891.00;;;;5028964;27;91508;-63
2023/09/04 05:02:25;;;;;;;2.03;1.50;;;10.60;99.90;10.60;101893.00;;;;5007582;27;117796;-63
2023/09/04 05:04:51;;;;;;;1.97;1.63;;;10.60;99.90;10.70;101895.00;;;;5025350;27;111249;-64
2023/09/04 05:07:17;;;;;;;1.63;1.20;;;10.70;99.90;10.80;101908.00;;;;5028124;27;110314;-64
2023/09/04 05:09:43;;;;;;;1.43;1.30;;;10.80;99.90;10.90;101908.00;;;;5025483;27;108285;-64
2023/09/04 05:12:08;;;;;;;2.03;1.37;;;10.90;99.90;11.10;101907.00;;;;5025942;27;115994;-64
2023/09/04 05:14:34;;;;;;;1.10;1.00;;;11.10;99.90;11.20;101910.00;;;;5026624;27;88713;-64
2023/09/04 05:17:00;;;;;;;2.20;1.60;;;11.20;99.90;11.30;101903.00;;;;5027557;27;111867;-64
2023/09/04 05:19:29;;;;;;;2.10;1.60;;;11.30;99.90;11.50;101919.00;;;;5027641;27;108238;-64
2023/09/04 05:21:54;;;;;;;1.20;1.10;;;11.40;99.90;11.60;101917.00;;;;5028166;27;116727;-64
2023/09/04 05:24:20;;;;;;;1.40;1.03;;;11.60;99.90;11.70;101912.00;;;;5025207;27;89558;-65
2023/09/04 05:26:46;;;;;;;2.27;1.33;;;11.70;99.90;11.90;101916.00;;;;5027836;27;111924;-65
2023/09/04 05:29:12;;;;;;;1.90;1.67;;;11.60;99.90;12.10;101908.00;;;;5027463;27;87980;-65
2023/09/04 05:31:37;;;;;;;1.70;1.50;;;12.00;99.90;12.30;101900.00;;;;5026521;27;118348;-64
2023/09/04 05:34:03;;;;;;;0.90;0.90;;;12.20;99.90;12.40;101908.00;;;;5027699;27;116522;-64
2023/09/04 05:36:29;;;;;;;1.13;1.07;;;12.40;99.90;12.60;101906.00;;;;5026404;27;110458;-63
2023/09/04 05:38:54;;;;;;;2.50;1.10;;;12.50;99.90;12.80;101911.00;;;;5031849;27;108376;-64
2023/09/04 05:41:20;;;;;;;2.13;1.20;;;12.70;99.90;13.00;101913.00;;;;5025865;27;88468;-63
2023/09/04 05:43:46;;;;;;;1.43;1.30;;;12.90;99.90;13.20;101909.00;;;;5021850;27;88520;-63
2023/09/04 05:46:11;;;;;;;2.00;1.53;;;13.10;99.90;13.30;101910.00;;;;5024233;27;109900;-64
2023/09/04 05:48:37;;;;;;;0.87;0.87;;;13.20;99.90;13.50;101909.00;;;;5026608;27;107716;-63
2023/09/04 05:51:03;;;;;;;2.10;1.43;;;13.40;99.90;13.70;101912.00;;;;5027038;27;88546;-65
2023/09/04 05:53:29;;;;;;;1.20;1.10;;;13.60;99.90;14.00;101921.00;;;;5026128;27;88144;-64
2023/09/04 05:56:07;;;;;;;1.90;1.47;;;13.90;99.90;14.30;101916.00;;;;5026787;27;110057;-63
2023/09/04 05:58:34;;;;;;;1.42;1.17;;;14.10;99.90;14.50;101921.00;;;;5028998;27;87720;-66
2023/09/04 06:01:00;;;;;;;0.90;0.90;;;14.40;99.90;14.70;101924.00;;;;5030811;27;88244;-64
2023/09/04 06:03:26;;;;;;;1.52;0.88;;;14.60;99.90;15.00;101930.00;;;;5025889;27;88680;-64
2023/09/04 06:05:52;;;;;;;1.52;0.77;;;14.80;99.90;15.20;101941.00;;;;5028046;27;87664;-63
2023/09/04 06:08:18;;;;;;;2.50;0.95;;;15.00;99.90;15.40;101936.00;;;;5029133;27;108394;-63
2023/09/04 06:10:43;;;;;;;2.33;1.67;;;15.20;99.90;15.60;101936.00;;;;5025612;27;89787;-63
2023/09/04 06:13:09;;;;;;;2.83;1.25;;;15.40;99.90;15.80;101941.00;;;;5019741;27;118489;-64
2023/09/04 06:15:35;;;;;;;2.88;1.45;;;15.60;99.90;16.00;101933.00;;;;5025290;27;87958;-65
2023/09/04 06:18:09;;;;;;;4.72;1.05;;;15.90;99.90;16.30;101939.00;;;;5023331;27;109263;-63
2023/09/04 06:20:45;;;;;;;3.17;1.08;;;16.10;99.90;16.50;101942.00;;;;5024208;27;119374;-65
2023/09/04 06:23:10;;;;;;;1.77;0.70;;;16.30;99.90;16.80;101949.00;;;;5028259;27;89756;-64
2023/09/04 06:25:39;;;;;;;1.75;0.90;;;16.60;99.90;17.00;101950.00;;;;5032857;27;109999;-64
2023/09/04 06:28:10;;;;;;;2.10;1.60;;;16.80;99.90;17.30;101951.00;;;;5032555;27;87238;-64
2023/09/04 06:30:36;;;;;;;1.67;1.13;;;17.10;99.90;17.50;101944.00;;;;5028712;27;88083;-64
2023/09/04 06:33:03;;;;;;;0.73;0.68;;;17.30;99.90;17.80;101942.00;;;;5028284;27;87904;-65
2023/09/04 06:35:29;;;;;;;1.60;1.17;;;17.60;99.90;18.00;101941.00;;;;5026239;27;92545;-64
2023/09/04 06:37:56;;;;;;;2.78;1.10;;;17.90;99.90;18.20;101936.00;;;;5027222;27;87735;-64
2023/09/04 06:40:22;;;;;;;1.33;0.90;;;18.10;99.90;18.40;101931.00;;;;5027428;27;111311;-65
2023/09/04 06:42:48;;;;;;;1.58;1.25;;;18.30;99.90;18.60;101941.00;;;;5025908;27;87915;-65
2023/09/04 06:45:14;;;;;;;0.95;0.95;;;18.50;99.90;18.80;101934.00;;;;5030940;27;87699;-65
2023/09/04 06:47:41;;;;;;;0.93;0.80;;;18.60;99.90;19.00;101931.00;;;;5028235;27;108426;-63
2023/09/04 06:50:08;;;;;;;1.23;1.08;;;18.80;99.90;19.20;101937.00;;;;5032881;27;99303;-64
2023/09/04 06:52:34;;;;;;;1.45;1.35;;;19.00;99.90;19.40;101931.00;;;;5028010;27;87907;-63
2023/09/04 06:55:01;;;;;;;0.65;0.65;;;19.20;99.90;19.50;101935.00;;;;5027068;27;87845;-64
2023/09/04 06:57:26;;;;;;;1.05;0.85;;;19.40;99.90;19.70;101935.00;;;;5006088;27;95270;-63
2023/09/04 06:59:52;;;;;;;1.98;0.98;;;19.50;99.90;19.90;101935.00;;;;5024863;27;117629;-63
2023/09/04 07:02:19;;;;;;;1.02;0.90;;;19.70;99.90;20.10;101937.00;;;;5025801;27;117430;-64
2023/09/04 07:04:45;;;;;;;1.20;1.05;;;19.90;99.90;20.30;101933.00;;;;5026441;27;87946;-64
2023/09/04 07:07:11;;;;;;;0.63;0.60;;;20.10;99.90;20.60;101930.00;;;;5027810;27;97458;-63
2023/09/04 07:09:37;;;;;;;1.08;0.85;;;20.40;99.90;20.80;101937.00;;;;5028309;27;89064;-63
2023/09/04 07:12:04;;;;;;;0.93;0.82;;;20.70;99.90;21.10;101928.00;;;;5029972;27;117204;-64
2023/09/04 07:14:31;;;;;;;1.40;0.90;;;20.90;99.90;21.40;101933.00;;;;5026963;27;100011;-64
2023/09/04 07:16:56;;;;;;;2.38;1.00;;;21.20;99.90;21.70;101944.00;;;;5034067;27;88411;-65
2023/09/04 07:19:22;;;;;;;1.50;1.00;;;21.50;99.90;21.90;101940.00;;;;5029837;27;108052;-64
2023/09/04 07:21:47;;;;;;;0.70;0.57;;;21.70;99.90;22.00;101943.00;;;;5029849;27;116610;-64
2023/09/04 07:24:13;;;;;;;1.13;0.80;;;21.90;99.50;22.20;101947.00;;;;5026694;27;108975;-63
2023/09/04 07:26:39;;;;;;;3.20;0.95;;;22.00;98.80;22.30;101941.00;;;;5032358;27;108793;-63
2023/09/04 07:29:04;;;;;;;0.77;0.75;;;22.20;97.70;22.40;101938.00;;;;5027271;27;117382;-63
2023/09/04 07:31:30;;;;;;;1.13;0.90;;;22.30;97.40;22.50;101933.00;;;;5026150;27;88154;-63
2023/09/04 07:33:56;;;;;;;0.98;0.90;;;22.40;96.90;22.60;101934.00;;;;5017617;27;98795;-64
2023/09/04 07:36:22;;;;;;;0.50;0.50;;;22.50;96.00;22.60;101935.00;;;;5031592;27;87632;-65
2023/09/04 07:38:47;;;;;;;0.60;0.57;;;22.60;95.30;22.60;101927.00;;;;5025703;27;87914;-65
2023/09/04 07:41:13;;;;;;;1.55;0.77;;;22.60;94.50;22.70;101933.00;;;;5030372;27;116319;-65
2023/09/04 07:43:39;;;;;;;1.10;0.98;;;22.60;94.30;22.80;101931.00;;;;5029271;27;110042;-64
2023/09/04 07:46:05;;;;;;;1.05;0.47;;;22.70;94.10;22.90;101936.00;;;;5028885;27;108023;-66
2023/09/04 07:48:31;;;;;;;1.27;0.98;;;22.80;93.70;23.00;101927.00;;;;5025555;27;119728;-64
2023/09/04 07:50:57;;;;;;;0.50;0.50;;;22.80;93.00;23.10;101931.00;;;;5027042;27;89825;-63
2023/09/04 07:53:23;;;;;;;1.05;0.77;;;23.00;92.90;23.30;101932.00;;;;5025954;27;87888;-63
2023/09/04 07:55:51;;;;;;;1.17;0.88;;;23.10;92.90;23.60;101940.00;;;;5029803;27;87758;-64
2023/09/04 07:58:17;;;;;;;1.08;0.85;;;23.40;92.50;23.80;101933.00;;;;5025376;27;88945;-64
2023/09/04 08:00:47;;;;;;;1.13;0.60;;;23.60;92.10;24.10;101933.00;;;;5028486;27;106666;-64
2023/09/04 08:03:13;;;;;;;0.63;0.63;;;23.90;91.80;24.50;101926.00;;;;5025847;27;102984;-63
2023/09/04 08:05:39;;;;;;;1.55;1.42;;;24.30;91.50;24.80;101932.00;;;;5027893;27;98093;-63
2023/09/04 08:08:10;;;;;;;1.13;0.65;;;24.60;90.70;25.00;101928.00;;;;5026297;27;88183;-63
2023/09/04 08:10:42;;;;;;;1.33;1.10;;;24.80;89.90;25.20;101927.00;;;;5029022;27;87892;-64
2023/09/04 08:13:11;;;;;;;1.10;0.90;;;25.00;87.40;25.30;101928.00;;;;5024903;27;88703;-65
2023/09/04 08:15:37;;;;;;;2.40;0.75;;;25.20;84.90;25.40;101930.00;;;;5027180;27;87556;-64
2023/09/04 08:18:03;;;;;;;0.85;0.60;;;25.20;83.90;25.50;101931.00;;;;5030544;27;89195;-64
2023/09/04 08:20:29;;;;;;;0.50;0.40;;;25.40;82.90;25.60;101930.00;;;;5006469;27;106201;-64
2023/09/04 08:22:54;;;;;;;1.02;0.57;;;25.40;82.20;25.70;101926.00;;;;5027351;27;87908;-65
2023/09/04 08:25:20;;;;;;;2.15;0.75;;;25.60;80.70;25.80;101925.00;;;;5026502;27;108309;-65
2023/09/04 08:27:45;;;;;;;0.65;0.57;;;25.70;80.30;26.00;101934.00;;;;5025873;27;117102;-65
2023/09/04 08:30:12;;;;;;;1.77;0.60;;;25.80;80.30;26.30;101933.00;;;;5027573;27;117373;-64
2023/09/04 08:32:37;;;;;;;1.55;0.82;;;26.00;79.40;26.40;101921.00;;;;5032135;27;93046;-64
2023/09/04 08:35:04;;;;;;;0.60;0.60;;;26.20;76.00;26.40;101929.00;;;;5029198;27;87730;-65
2023/09/04 08:37:30;;;;;;;0.63;0.60;;;26.30;74.60;26.30;101932.00;;;;5030059;27;109988;-63
2023/09/04 08:39:56;;;;;;;1.02;0.75;;;26.20;73.50;26.30;101925.00;;;;5030291;27;116840;-65
2023/09/04 08:42:22;;;;;;;0.80;0.73;;;26.20;73.50;26.40;101923.00;;;;5027415;27;109695;-65
2023/09/04 08:44:50;;;;;;;1.08;0.93;;;26.20;74.20;26.60;101933.00;;;;5024263;27;98434;-65
2023/09/04 08:47:19;;;;;;;0.60;0.40;;;26.40;74.50;26.90;101927.00;;;;5029967;27;88544;-64
2023/09/04 08:49:45;;;;;;;2.20;0.63;;;26.60;73.90;26.90;101924.00;;;;5028631;27;88856;-64
2023/09/04 08:52:12;;;;;;;1.05;0.50;;;26.80;71.60;26.90;101927.00;;;;5007126;27;110158;-63
2023/09/04 08:54:39;;;;;;;0.60;0.47;;;26.80;68.20;26.80;101932.00;;;;5025975;27;87025;-64
2023/09/04 08:57:05;;;;;;;1.23;0.55;;;26.70;68.40;26.80;101932.00;;;;5026233;27;107399;-64
2023/09/04 08:59:30;;;;;;;8.68;0.75;;;26.70;68.60;26.90;101925.00;;;;5026555;27;116875;-64
2023/09/04 09:02:00;;;;;;;0.60;0.60;;;26.70;68.10;27.00;101934.00;;;;5024879;27;109608;-64
2023/09/04 09:04:26;;;;;;;0.60;0.50;;;26.80;69.00;27.30;101937.00;;;;5008087;27;88123;-65
2023/09/04 09:06:52;;;;;;;1.08;0.95;;;26.90;69.30;27.60;101941.00;;;;5007072;27;114841;-66
2023/09/04 09:09:21;;;;;;;0.60;0.50;;;27.20;68.70;27.80;101942.00;;;;5023246;27;115129;-66
2023/09/04 09:11:53;;;;;;;1.02;0.60;;;27.40;68.00;28.10;101932.00;;;;5024886;27;88356;-68
2023/09/04 09:14:20;;;;;;;0.40;0.40;;;27.60;67.70;28.40;101933.00;;;;5025649;27;87986;-67
2023/09/04 09:16:46;;;;;;;1.13;0.80;;;27.90;67.30;28.70;101929.00;;;;5027140;27;88073;-66
2023/09/04 09:19:13;;;;;;;0.70;0.70;;;28.20;66.50;29.00;101928.00;;;;5023723;27;113400;-67
2023/09/04 09:21:39;;;;;;;1.90;0.50;;;28.50;64.80;29.30;101927.00;;;;5025546;27;87573;-65
2023/09/04 09:24:16;;;;;;;0.95;0.43;;;28.80;64.00;29.60;101918.00;;;;5024450;27;99861;-67
2023/09/04 09:26:47;;;;;;;0.57;0.50;;;29.10;63.10;29.90;101928.00;;;;5026200;27;89923;-67
2023/09/04 09:29:13;;;;;;;1.00;0.85;;;29.40;61.70;30.00;101936.00;;;;5022337;27;92331;-67
2023/09/04 09:31:42;;;;;;;0.65;0.60;;;29.50;60.90;30.20;101933.00;;;;5027849;27;87999;-68
2023/09/04 09:34:09;;;;;;;2.65;0.70;;;29.80;60.00;30.30;101936.00;;;;5022301;27;88148;-68
2023/09/04 09:36:35;;;;;;;3.38;0.65;;;29.80;59.20;30.40;101935.00;;;;5023144;27;88718;-67
2023/09/04 09:39:03;;;;;;;0.40;0.30;;;30.00;58.80;30.70;101932.00;;;;5022964;27;88642;-67
2023/09/04 09:41:29;;;;;;;0.55;0.38;;;30.20;58.10;30.80;101922.00;;;;5028428;27;87965;-66
2023/09/04 09:43:55;;;;;;;0.40;0.32;;;30.30;57.50;31.00;101919.00;;;;5028973;27;87150;-67
2023/09/04 09:46:21;;;;;;;0.73;0.73;;;30.50;56.50;31.10;101920.00;;;;5028067;27;89628;-66
2023/09/04 09:48:47;;;;;;;0.75;0.52;;;30.60;55.50;31.00;101922.00;;;;5027238;27;116670;-68
2023/09/04 09:51:13;;;;;;;2.10;0.45;;;30.50;54.00;30.80;101927.00;;;;5025769;27;95211;-67
2023/09/04 09:53:51;;;;;;;1.02;0.50;;;30.40;53.10;30.50;101933.00;;;;5025726;27;87868;-66
2023/09/04 09:56:18;;;;;;;0.82;0.75;;;30.10;51.90;29.90;101942.00;;;;5023464;27;88422;-68
2023/09/04 09:58:49;;;;;;;0.55;0.43;;;29.70;52.10;29.70;101942.00;;;;5023577;27;88061;-67
2023/09/04 10:01:17;;;;;;;1.27;0.43;;;29.30;53.10;29.60;101952.00;;;;5025672;27;88355;-67
2023/09/04 10:03:46;;;;;;;0.95;0.50;;;29.20;53.20;29.40;101948.00;;;;5025550;27;87725;-68
2023/09/04 10:06:24;;;;;;;0.30;0.22;;;29.00;53.50;29.70;101953.00;;;;5021344;27;88725;-66
2023/09/04 10:08:51;;;;;;;0.40;0.40;;;29.10;54.20;30.20;101950.00;;;;5011740;27;87736;-66
2023/09/04 10:11:18;;;;;;;0.30;0.30;;;29.40;54.20;30.60;101947.00;;;;5026657;27;87924;-67
2023/09/04 10:14:13;;;;;;;0.30;0.20;;;29.80;53.80;31.10;101942.00;;;;5024508;27;106692;-67
2023/09/04 10:17:00;;;;;;;0.43;0.25;;;30.20;53.60;31.60;101949.00;;;;5005705;27;89022;-66
2023/09/04 10:19:31;;;;;;;0.43;0.28;;;30.60;52.90;31.80;101956.00;;;;5023069;27;89431;-68
2023/09/04 10:22:07;;;;;;;0.20;0.20;;;31.00;52.00;32.00;101944.00;;;;5007224;27;89273;-67
2023/09/04 10:24:46;;;;;;;0.40;0.40;;;31.20;51.60;32.20;101950.00;;;;5017747;27;98430;-67
2023/09/04 10:27:13;;;;;;;0.93;0.60;;;31.40;50.90;32.50;101956.00;;;;5012561;27;103029;-68
2023/09/04 10:29:47;;;;;;;0.57;0.40;;;31.70;50.80;32.80;101942.00;;;;4999967;27;88377;-67
2023/09/04 10:32:13;;;;;;;0.55;0.43;;;32.00;49.50;33.00;101941.00;;;;4999132;27;87859;-66
2023/09/04 10:34:41;;;;;;;0.50;0.40;;;32.20;48.70;33.20;101946.00;;;;5017433;27;87196;-66
2023/09/04 10:37:11;;;;;;;0.68;0.52;;;32.40;48.20;33.30;101939.00;;;;5016099;27;88710;-67
2023/09/04 10:39:38;;;;;;;0.30;0.30;;;32.50;47.80;33.50;101941.00;;;;5019521;27;88566;-67
2023/09/04 10:42:05;;;;;;;1.30;0.50;;;32.70;47.70;33.80;101927.00;;;;5000537;27;88792;-68
2023/09/04 10:44:49;;;;;;;0.60;0.30;;;33.00;47.60;34.20;101928.00;;;;4994557;27;87606;-69